Latest Weather Observations for Outer Harbor (Black Pole)

IDS60801

Issued at 7:35 am CDT Saturday 25 October 2014 (issued every 30 minutes, with the page automatically refreshed every 10 minutes)

About weather observations | Map of weather stations | Latest weather observations for SA | Other Formats
Station Details ID: 023052 Name: BLACK POLE Lat: -34.73 Lon: 138.47 Height: 8.0 m
Data from the previous 72 hours. | See also: Recent months for locations in South Australia
Date/Time
CDT
Temp
°C
App
Temp
°C
Dew
Point
Rel
Hum
%
Delta-T
°C
Wind Press
QNH
hPa
Press
MSL
hPa
Rain
since 9 am
mm
Dir
 
Spd
km/h
Gust
km/h
Spd
kts
Gust
kts
25/07:30am - - - - - ENE 9 11 5 6 - - -
25/07:00am - - - - - ENE 7 9 4 5 - - -
25/06:30am - - - - - ENE 7 13 4 7 - - -
25/06:00am - - - - - NNE 13 15 7 8 - - -
25/05:30am - - - - - N 11 13 6 7 - - -
25/05:00am - - - - - NNE 13 15 7 8 - - -
25/04:30am - - - - - NE 9 13 5 7 - - -
25/04:00am - - - - - NE 11 13 6 7 - - -
25/03:30am - - - - - NE 13 15 7 8 - - -
25/03:00am - - - - - NE 19 24 10 13 - - -
25/02:30am - - - - - NE 19 20 10 11 - - -
25/02:00am - - - - - NE 9 11 5 6 - - -
25/01:30am - - - - - NE 9 13 5 7 - - -
25/01:00am - - - - - S 13 15 7 8 - - -
25/12:30am - - - - - S 13 15 7 8 - - -
25/12:00am - - - - - SSW 17 19 9 10 - - -
 
Date/Time
CDT
Temp
°C
App
Temp
°C
Dew
Point
Rel
Hum
%
Delta-T
°C
Wind Press
QNH
hPa
Press
MSL
hPa
Rain
since 9 am
mm
Dir
 
Spd
km/h
Gust
km/h
Spd
kts
Gust
kts
24/11:30pm - - - - - SSW 19 22 10 12 - - -
24/11:00pm - - - - - SSW 20 24 11 13 - - -
24/10:30pm - - - - - SW 22 26 12 14 - - -
24/10:00pm - - - - - SW 22 24 12 13 - - -
24/09:30pm - - - - - SW 19 20 10 11 - - -
24/09:00pm - - - - - SSW 19 22 10 12 - - -
24/08:30pm - - - - - SSW 24 28 13 15 - - -
24/08:00pm - - - - - SSW 28 33 15 18 - - -
24/07:30pm - - - - - SSW 22 28 12 15 - - -
24/07:00pm - - - - - S 24 28 13 15 - - -
24/06:30pm - - - - - SSW 30 35 16 19 - - -
24/06:00pm - - - - - SSW 32 35 17 19 - - -
24/05:30pm - - - - - SSW 30 35 16 19 - - -
24/05:00pm - - - - - SSW 28 33 15 18 - - -
24/04:30pm - - - - - SSW 20 24 11 13 - - -
24/04:00pm - - - - - SSW 15 17 8 9 - - -
24/03:30pm - - - - - S 11 13 6 7 - - -
24/03:00pm - - - - - S 9 11 5 6 - - -
24/02:30pm - - - - - SSE 4 4 2 2 - - -
24/02:00pm - - - - - ESE 2 2 1 1 - - -
24/01:30pm - - - - - S 4 4 2 2 - - -
24/01:00pm - - - - - S 6 7 3 4 - - -
24/12:30pm - - - - - S 6 7 3 4 - - -
24/12:00pm - - - - - S 6 9 3 5 - - -
24/11:30am - - - - - S 2 4 1 2 - - -
24/11:00am - - - - - S 4 4 2 2 - - -
24/10:30am - - - - - S 4 4 2 2 - - -
24/10:00am - - - - - ESE 2 4 1 2 - - -
24/09:30am - - - - - E 6 7 3 4 - - -
24/09:00am - - - - - NE 9 11 5 6 - - -
24/08:30am - - - - - NNE 7 11 4 6 - - -
24/08:00am - - - - - NE 13 15 7 8 - - -
24/07:30am - - - - - NE 9 13 5 7 - - -
24/07:00am - - - - - NE 11 15 6 8 - - -
24/06:30am - - - - - NE 11 15 6 8 - - -
24/06:00am - - - - - N 15 19 8 10 - - -
24/05:30am - - - - - NNE 20 26 11 14 - - -
24/05:00am - - - - - NNE 17 19 9 10 - - -
24/04:30am - - - - - NNE 13 15 7 8 - - -
24/04:00am - - - - - NE 9 11 5 6 - - -
24/03:30am - - - - - NNE 15 17 8 9 - - -
24/03:00am - - - - - NE 17 19 9 10 - - -
24/02:30am - - - - - NE 15 17 8 9 - - -
24/02:00am - - - - - NNE 13 15 7 8 - - -
24/01:30am - - - - - NE 9 13 5 7 - - -
24/01:00am - - - - - ESE 2 9 1 5 - - -
24/12:30am - - - - - S 6 7 3 4 - - -
24/12:00am - - - - - SSW 7 11 4 6 - - -
 
Date/Time
CDT
Temp
°C
App
Temp
°C
Dew
Point
Rel
Hum
%
Delta-T
°C
Wind Press
QNH
hPa
Press
MSL
hPa
Rain
since 9 am
mm
Dir
 
Spd
km/h
Gust
km/h
Spd
kts
Gust
kts
23/11:30pm - - - - - W 9 15 5 8 - - -
23/11:00pm - - - - - WSW 4 6 2 3 - - -
23/10:30pm - - - - - SW 7 9 4 5 - - -
23/10:00pm - - - - - WSW 11 13 6 7 - - -
23/09:30pm - - - - - WSW 13 17 7 9 - - -
23/09:00pm - - - - - SW 11 13 6 7 - - -
23/08:30pm - - - - - SSW 15 17 8 9 - - -
23/08:00pm - - - - - SSW 13 17 7 9 - - -
23/07:30pm - - - - - SW 17 20 9 11 - - -
23/07:00pm - - - - - SW 17 20 9 11 - - -
23/06:30pm - - - - - SSW 19 22 10 12 - - -
23/06:00pm - - - - - SSW 20 24 11 13 - - -
23/05:30pm - - - - - SW 24 28 13 15 - - -
23/05:00pm - - - - - SW 22 26 12 14 - - -
23/04:30pm - - - - - SW 22 24 12 13 - - -
23/04:00pm - - - - - SW 22 26 12 14 - - -
23/03:30pm - - - - - SW 22 24 12 13 - - -
23/03:00pm - - - - - SW 19 22 10 12 - - -
23/02:30pm - - - - - SW 20 24 11 13 - - -
23/02:00pm - - - - - SW 22 26 12 14 - - -
23/01:30pm - - - - - SW 20 22 11 12 - - -
23/01:00pm - - - - - SW 19 20 10 11 - - -
23/12:30pm - - - - - SW 17 20 9 11 - - -
23/12:00pm - - - - - SW 17 20 9 11 - - -
23/11:30am - - - - - WSW 15 17 8 9 - - -
23/11:00am - - - - - WSW 9 11 5 6 - - -
23/10:30am - - - - - SSW 4 7 2 4 - - -
23/10:00am - - - - - CALM 0 4 0 2 - - -
23/09:30am - - - - - NE 6 9 3 5 - - -
23/09:00am - - - - - NNE 9 13 5 7 - - -
23/08:30am - - - - - NNE 11 13 6 7 - - -
23/08:00am - - - - - N 11 13 6 7 - - -
23/07:30am - - - - - N 13 15 7 8 - - -
23/07:00am - - - - - SSE 7 11 4 6 - - -
23/06:30am - - - - - S 17 20 9 11 - - -
23/06:00am - - - - - S 22 26 12 14 - - -
23/05:30am - - - - - S 20 28 11 15 - - -
23/05:00am - - - - - S 22 28 12 15 - - -
23/04:30am - - - - - S 24 30 13 16 - - -
23/04:00am - - - - - S 30 35 16 19 - - -
23/03:30am - - - - - S 26 32 14 17 - - -
23/03:00am - - - - - S 26 30 14 16 - - -
23/02:30am - - - - - S 26 30 14 16 - - -
23/02:00am - - - - - S 28 32 15 17 - - -
23/01:30am - - - - - SSW 26 30 14 16 - - -
23/01:00am - - - - - SSW 26 30 14 16 - - -
23/12:30am - - - - - S 22 26 12 14 - - -
23/12:00am - - - - - S 28 32 15 17 - - -
 
Date/Time
CDT
Temp
°C
App
Temp
°C
Dew
Point
Rel
Hum
%
Delta-T
°C
Wind Press
QNH
hPa
Press
MSL
hPa
Rain
since 9 am
mm
Dir
 
Spd
km/h
Gust
km/h
Spd
kts
Gust
kts
22/11:30pm - - - - - S 33 39 18 21 - - -
22/11:00pm - - - - - S 37 41 20 22 - - -
22/10:30pm - - - - - S 35 39 19 21 - - -
22/10:00pm - - - - - S 32 37 17 20 - - -
22/09:30pm - - - - - SSW 37 43 20 23 - - -
22/09:00pm - - - - - SSW 39 48 21 26 - - -
22/08:30pm - - - - - SSW 39 48 21 26 - - -
22/08:00pm - - - - - SSW 43 50 23 27 - - -
22/07:30pm - - - - - SSW 41 50 22 27 - - -
22/07:00pm - - - - - SSW 43 50 23 27 - - -
22/06:30pm - - - - - SSW 43 54 23 29 - - -
22/06:00pm - - - - - SSW 41 50 22 27 - - -
22/05:30pm - - - - - SSW 41 48 22 26 - - -
22/05:00pm - - - - - SW 43 52 23 28 - - -
22/04:30pm - - - - - SW 41 48 22 26 - - -
22/04:00pm - - - - - SW 39 48 21 26 - - -
22/03:30pm - - - - - SW 39 46 21 25 - - -
22/03:00pm - - - - - SW 41 46 22 25 - - -
22/02:30pm - - - - - SW 43 50 23 27 - - -
22/02:00pm - - - - - SW 44 54 24 29 - - -
22/01:30pm - - - - - SW 37 44 20 24 - - -
22/01:00pm - - - - - SSW 24 32 13 17 - - -
22/12:30pm - - - - - SW 17 20 9 11 - - -
22/12:00pm - - - - - SW 20 24 11 13 - - -
22/11:30am - - - - - SSW 15 17 8 9 - - -
22/11:00am - - - - - SW 15 20 8 11 - - -
22/10:30am - - - - - SW 17 20 9 11 - - -
22/10:00am - - - - - SSW 17 19 9 10 - - -
22/09:30am - - - - - SW 15 20 8 11 - - -
22/09:00am - - - - - SW 13 17 7 9 - - -
22/08:30am - - - - - SSW 11 13 6 7 - - -
22/08:00am - - - - - S 17 20 9 11 - - -

Other Formats:

Comma delimited format used in spreadsheet applications
http://www.bom.gov.au/fwo/IDS60801/IDS60801.95675.axf

JavaScript Object Notation format (JSON) in row-major order
http://www.bom.gov.au/fwo/IDS60801/IDS60801.95675.json